Time;durP1;ratioP1;P1;durP2;ratioP2;P2;SDS_P1;SDS_P2;PMS_P1;PMS_P2;Temp;Humidity;BMP_temperature;BMP_pressure;BME280_temperature;BME280_humidity;BME280_pressure;Samples;Min_cycle;Max_cycle;Signal;HPM_P1;HPM_P2
2022/08/24 00:00:24;;;;;;;1.15;1.00;;;17.30;14.00;;;;;;5149772;27;34272;-74
2022/08/24 00:02:50;;;;;;;0.80;0.65;;;17.30;14.10;;;;;;5148281;27;36929;-73
2022/08/24 00:05:20;;;;;;;0.82;0.80;;;17.30;14.10;;;;;;5148578;27;34206;-75
2022/08/24 00:07:47;;;;;;;2.63;0.90;;;17.20;14.80;;;;;;5128415;27;34102;-73
2022/08/24 00:10:13;;;;;;;1.40;1.00;;;17.20;14.30;;;;;;5146965;27;34280;-74
2022/08/24 00:12:39;;;;;;;1.95;0.98;;;17.10;14.40;;;;;;5143431;27;35718;-74
2022/08/24 00:15:09;;;;;;;1.13;0.75;;;17.10;14.50;;;;;;5130899;27;34344;-74
2022/08/24 00:17:34;;;;;;;2.75;1.60;;;17.10;14.80;;;;;;5114258;27;34446;-74
2022/08/24 00:20:01;;;;;;;0.90;0.80;;;17.00;14.50;;;;;;5148726;27;34208;-74
2022/08/24 00:22:27;;;;;;;1.17;0.90;;;17.00;14.60;;;;;;5148366;27;36678;-74
2022/08/24 00:24:53;;;;;;;2.35;0.70;;;17.00;14.60;;;;;;5148294;27;34570;-74
2022/08/24 00:27:20;;;;;;;1.85;1.00;;;16.90;14.80;;;;;;5148750;27;34389;-74
2022/08/24 00:29:46;;;;;;;0.80;0.80;;;16.90;14.70;;;;;;5166976;27;34069;-74
2022/08/24 00:32:11;;;;;;;2.03;0.88;;;16.90;14.90;;;;;;5167177;27;34224;-74
2022/08/24 00:34:37;;;;;;;1.45;0.75;;;16.90;14.90;;;;;;5148857;27;34147;-74
2022/08/24 00:37:04;;;;;;;0.80;0.80;;;16.90;14.90;;;;;;5167199;27;34146;-74
2022/08/24 00:39:30;;;;;;;1.10;0.80;;;16.80;14.80;;;;;;5131248;27;34109;-74
2022/08/24 00:41:55;;;;;;;3.00;0.77;;;16.80;15.00;;;;;;5147793;27;35487;-74
2022/08/24 00:44:22;;;;;;;0.95;0.80;;;16.80;15.10;;;;;;5167325;27;34156;-74
2022/08/24 00:46:58;;;;;;;2.08;0.88;;;16.70;15.10;;;;;;5167158;27;34161;-74
2022/08/24 00:49:42;;;;;;;4.82;2.80;;;16.70;15.80;;;;;;5167289;27;34332;-74
2022/08/24 00:52:17;;;;;;;6.65;3.60;;;16.70;17.40;;;;;;5166501;27;34132;-74
2022/08/24 00:54:47;;;;;;;1.50;1.40;;;16.70;15.50;;;;;;5131611;27;34202;-75
2022/08/24 00:57:17;;;;;;;1.60;1.35;;;16.70;15.40;;;;;;5166800;27;34164;-74
2022/08/24 00:59:50;;;;;;;1.27;1.13;;;16.60;15.60;;;;;;5147769;27;34207;-73
2022/08/24 01:02:23;;;;;;;0.80;0.80;;;16.60;16.20;;;;;;5166438;27;34350;-73
2022/08/24 01:04:55;;;;;;;0.80;0.80;;;16.60;16.00;;;;;;5130947;27;34091;-73
2022/08/24 01:07:25;;;;;;;0.90;0.90;;;16.50;16.00;;;;;;5147855;27;34292;-74
2022/08/24 01:09:55;;;;;;;1.00;1.00;;;16.50;16.00;;;;;;5148147;27;34177;-74
2022/08/24 01:12:23;;;;;;;1.13;1.02;;;16.50;15.90;;;;;;5147338;27;35611;-73
2022/08/24 01:14:49;;;;;;;4.45;1.15;;;16.50;15.70;;;;;;5130807;27;34058;-74
2022/08/24 01:19:57;;;;;;;2.50;1.00;;;16.40;15.70;;;;;;5166732;27;34139;-74
2022/08/24 01:22:45;;;;;;;1.88;0.90;;;16.40;15.80;;;;;;5166408;27;34459;-75
2022/08/24 01:25:11;;;;;;;1.60;1.10;;;16.40;17.50;;;;;;5147812;27;34001;-74
2022/08/24 01:27:38;;;;;;;1.10;0.93;;;16.40;15.80;;;;;;5148014;27;34196;-74
2022/08/24 01:30:09;;;;;;;1.30;1.00;;;16.40;15.80;;;;;;5147959;27;34537;-74
2022/08/24 01:32:35;;;;;;;1.67;0.95;;;16.30;16.10;;;;;;5130553;27;35751;-74
2022/08/24 01:35:02;;;;;;;1.10;0.95;;;16.30;15.90;;;;;;5147007;27;34100;-74
2022/08/24 01:37:28;;;;;;;3.30;1.08;;;16.30;15.90;;;;;;5147665;27;34347;-74
2022/08/24 01:39:56;;;;;;;1.08;0.85;;;16.30;16.50;;;;;;5147387;27;34173;-73
2022/08/24 01:42:22;;;;;;;0.82;0.82;;;16.30;16.10;;;;;;5145794;27;35831;-74
2022/08/24 01:44:48;;;;;;;1.20;1.10;;;16.30;16.00;;;;;;5145017;27;34261;-73
2022/08/24 01:47:15;;;;;;;1.42;1.20;;;16.30;16.10;;;;;;5132553;27;34220;-74
2022/08/24 01:49:46;;;;;;;1.10;1.00;;;16.30;16.20;;;;;;5151628;27;34169;-74
2022/08/24 01:52:18;;;;;;;1.02;1.00;;;16.20;16.70;;;;;;5169049;27;35293;-74
2022/08/24 01:54:44;;;;;;;1.42;1.08;;;16.20;16.70;;;;;;5169723;27;34199;-74
2022/08/24 01:57:11;;;;;;;1.20;1.10;;;16.20;16.30;;;;;;5151166;27;34186;-74
2022/08/24 01:59:37;;;;;;;1.52;1.17;;;16.10;16.40;;;;;;5151309;27;34174;-73
2022/08/24 02:02:08;;;;;;;1.73;1.02;;;16.10;16.40;;;;;;5169663;27;34097;-74
2022/08/24 02:04:35;;;;;;;1.25;1.10;;;16.10;16.50;;;;;;5150911;27;34196;-74
2022/08/24 02:07:01;;;;;;;0.80;0.80;;;16.10;16.40;;;;;;5160019;27;34542;-74
2022/08/24 02:09:27;;;;;;;1.20;1.10;;;16.10;16.50;;;;;;5151075;27;34045;-74
2022/08/24 02:11:54;;;;;;;1.55;1.02;;;16.00;16.60;;;;;;5160195;27;34032;-74
2022/08/24 02:14:20;;;;;;;1.00;0.88;;;16.00;17.10;;;;;;5150532;27;34266;-73
2022/08/24 02:16:46;;;;;;;1.13;1.02;;;16.00;16.70;;;;;;5150132;27;34160;-74
2022/08/24 02:19:13;;;;;;;1.08;1.00;;;16.00;16.60;;;;;;5150694;27;34097;-74
2022/08/24 02:21:39;;;;;;;1.67;1.10;;;16.00;16.80;;;;;;5162550;27;34375;-74
2022/08/24 02:24:06;;;;;;;1.15;0.88;;;15.90;16.80;;;;;;5150657;27;34215;-74
2022/08/24 02:26:32;;;;;;;2.03;1.10;;;16.00;16.80;;;;;;5133626;27;34304;-74
2022/08/24 02:28:58;;;;;;;1.60;0.90;;;15.90;16.90;;;;;;5150748;27;34483;-74
2022/08/24 02:31:24;;;;;;;1.40;0.80;;;15.90;16.90;;;;;;5150200;27;36361;-74
2022/08/24 02:33:50;;;;;;;1.08;0.98;;;15.90;16.90;;;;;;5139682;27;34047;-74
2022/08/24 02:36:16;;;;;;;1.42;0.93;;;15.90;16.70;;;;;;5129679;27;34032;-74
2022/08/24 02:38:42;;;;;;;1.20;1.10;;;15.80;17.00;;;;;;5130182;27;34164;-74
2022/08/24 02:41:10;;;;;;;1.00;1.00;;;15.80;16.90;;;;;;5129686;27;36230;-74
2022/08/24 02:43:36;;;;;;;0.90;0.90;;;15.80;17.30;;;;;;5146475;27;34270;-74
2022/08/24 02:46:02;;;;;;;1.80;1.33;;;15.80;17.10;;;;;;5150424;27;34123;-74
2022/08/24 02:48:28;;;;;;;2.50;2.30;;;15.80;17.20;;;;;;5169023;27;34141;-74
2022/08/24 02:50:54;;;;;;;4.32;2.35;;;15.80;17.30;;;;;;5147036;27;34893;-74
2022/08/24 02:53:21;;;;;;;1.65;1.40;;;15.70;17.20;;;;;;5112412;27;34086;-73
2022/08/24 02:55:47;;;;;;;1.23;1.10;;;15.70;17.30;;;;;;5129779;27;34175;-74
2022/08/24 02:58:15;;;;;;;1.20;1.00;;;15.70;17.30;;;;;;5150087;27;34247;-74
2022/08/24 03:00:43;;;;;;;2.17;1.10;;;15.70;17.40;;;;;;5147522;27;36525;-73
2022/08/24 03:03:10;;;;;;;1.25;1.10;;;15.60;17.40;;;;;;5146840;27;34051;-74
2022/08/24 03:05:36;;;;;;;1.00;1.00;;;15.60;17.30;;;;;;5128678;27;34241;-74
2022/08/24 03:08:03;;;;;;;1.00;1.00;;;15.60;17.40;;;;;;5165816;27;34317;-74
2022/08/24 03:10:30;;;;;;;2.08;1.05;;;15.60;17.60;;;;;;5129116;27;35506;-74
2022/08/24 03:12:58;;;;;;;2.63;1.23;;;15.50;17.30;;;;;;5147248;27;34259;-74
2022/08/24 03:15:24;;;;;;;3.55;1.00;;;15.50;17.30;;;;;;5135209;27;34069;-74
2022/08/24 03:17:50;;;;;;;1.52;1.17;;;15.50;18.00;;;;;;5167856;27;34344;-74
2022/08/24 03:20:18;;;;;;;1.08;0.98;;;15.50;17.60;;;;;;5136852;27;35765;-74
2022/08/24 03:22:45;;;;;;;2.58;1.35;;;15.50;17.80;;;;;;5164635;27;34089;-74
2022/08/24 03:25:12;;;;;;;1.92;1.10;;;15.50;17.70;;;;;;5141453;27;34206;-74
2022/08/24 03:27:39;;;;;;;1.15;1.05;;;15.40;17.70;;;;;;5107944;27;34030;-74
2022/08/24 03:30:07;;;;;;;1.85;1.25;;;15.40;18.30;;;;;;5128350;27;36363;-74
2022/08/24 03:32:33;;;;;;;1.20;1.05;;;15.40;17.90;;;;;;5146145;27;34539;-74
2022/08/24 03:34:59;;;;;;;2.50;1.00;;;15.40;17.70;;;;;;5149040;27;34481;-74
2022/08/24 03:37:25;;;;;;;1.33;1.05;;;15.30;17.90;;;;;;5149576;27;34497;-74
2022/08/24 03:39:50;;;;;;;0.90;0.90;;;15.30;17.90;;;;;;5131539;27;35544;-75
2022/08/24 03:42:17;;;;;;;1.25;1.10;;;15.30;17.90;;;;;;5148810;27;34312;-75
2022/08/24 03:44:43;;;;;;;1.48;1.20;;;15.30;18.00;;;;;;5168018;27;34064;-74
2022/08/24 03:47:09;;;;;;;1.10;1.00;;;15.20;17.90;;;;;;5111249;27;34165;-74
2022/08/24 03:49:36;;;;;;;1.20;1.10;;;15.20;17.90;;;;;;5141863;27;36137;-73
2022/08/24 03:52:04;;;;;;;0.95;0.90;;;15.20;17.90;;;;;;5148966;27;34195;-74
2022/08/24 03:54:30;;;;;;;0.93;0.93;;;15.20;17.90;;;;;;5167375;27;34277;-74
2022/08/24 03:56:57;;;;;;;1.30;1.05;;;15.20;18.00;;;;;;5131577;27;34483;-77
2022/08/24 03:59:24;;;;;;;1.17;1.08;;;15.10;18.00;;;;;;5149052;27;36424;-74
2022/08/24 04:01:50;;;;;;;1.30;1.20;;;15.10;18.20;;;;;;5167445;27;34259;-74
2022/08/24 04:04:16;;;;;;;1.25;1.00;;;15.00;18.10;;;;;;5167635;27;33959;-74
2022/08/24 04:06:45;;;;;;;1.35;1.25;;;15.00;18.10;;;;;;5167598;27;34298;-74
2022/08/24 04:09:12;;;;;;;4.05;0.90;;;15.00;18.30;;;;;;5166576;27;34329;-74
2022/08/24 04:11:38;;;;;;;1.48;1.00;;;14.90;18.20;;;;;;5148946;27;34262;-74
2022/08/24 04:14:06;;;;;;;0.80;0.80;;;15.00;18.30;;;;;;5131637;27;34125;-75
2022/08/24 04:16:32;;;;;;;1.13;1.00;;;14.90;18.40;;;;;;5167595;27;34060;-74
2022/08/24 04:18:58;;;;;;;1.10;1.00;;;14.90;18.40;;;;;;5148240;27;35980;-74
2022/08/24 04:21:29;;;;;;;1.08;1.00;;;14.90;18.40;;;;;;5148812;27;34271;-74
2022/08/24 04:23:57;;;;;;;1.40;0.90;;;14.90;18.40;;;;;;5166687;27;34491;-74
2022/08/24 04:26:25;;;;;;;1.67;1.02;;;14.90;18.40;;;;;;5167765;27;34078;-74
2022/08/24 04:28:51;;;;;;;1.10;1.00;;;14.90;18.40;;;;;;5148849;27;34395;-74
2022/08/24 04:31:18;;;;;;;2.35;1.30;;;14.90;18.50;;;;;;5148472;27;34268;-76
2022/08/24 04:33:46;;;;;;;1.40;1.30;;;14.80;18.40;;;;;;5148014;27;34206;-74
2022/08/24 04:36:12;;;;;;;5.13;1.13;;;14.80;18.50;;;;;;5148553;27;34195;-74
2022/08/24 04:38:38;;;;;;;1.20;1.10;;;14.80;18.50;;;;;;5131398;27;36055;-74
2022/08/24 04:41:06;;;;;;;1.35;1.10;;;14.80;18.60;;;;;;5148519;27;34258;-74
2022/08/24 04:43:33;;;;;;;1.27;1.17;;;14.80;18.80;;;;;;5148799;27;34305;-74
2022/08/24 04:46:03;;;;;;;1.17;1.08;;;14.80;18.70;;;;;;5166945;27;34151;-75
2022/08/24 04:48:29;;;;;;;1.70;1.10;;;14.70;18.80;;;;;;5148256;27;35698;-75
2022/08/24 04:51:00;;;;;;;2.75;1.30;;;14.70;18.80;;;;;;5127153;27;34651;-75
2022/08/24 04:53:26;;;;;;;2.20;1.27;;;14.70;18.80;;;;;;5128023;27;34073;-75
2022/08/24 04:55:51;;;;;;;1.30;1.20;;;14.70;18.90;;;;;;5113568;27;34102;-75
2022/08/24 04:58:18;;;;;;;5.70;1.30;;;14.70;18.80;;;;;;5148371;27;35107;-75
2022/08/24 05:00:44;;;;;;;1.20;1.10;;;14.70;18.90;;;;;;5148208;27;34257;-75
2022/08/24 05:03:11;;;;;;;1.98;1.20;;;14.70;18.80;;;;;;5147990;27;34395;-75
2022/08/24 05:05:43;;;;;;;1.40;1.30;;;14.70;18.90;;;;;;5126099;27;34170;-75
2022/08/24 05:08:10;;;;;;;1.17;1.10;;;14.70;19.40;;;;;;5127633;27;35536;-74
2022/08/24 05:10:43;;;;;;;1.17;1.08;;;14.70;19.00;;;;;;5142826;27;34180;-74
2022/08/24 05:13:09;;;;;;;1.77;1.27;;;14.70;19.40;;;;;;5147988;27;34210;-74
2022/08/24 05:15:39;;;;;;;1.77;0.95;;;14.70;18.80;;;;;;5148082;27;34521;-74
2022/08/24 05:18:06;;;;;;;4.35;1.65;;;14.70;18.90;;;;;;5130235;27;35777;-74
2022/08/24 05:20:34;;;;;;;1.83;1.45;;;14.70;18.90;;;;;;5147362;27;34156;-74
2022/08/24 05:23:00;;;;;;;1.40;1.30;;;14.80;19.00;;;;;;5130406;27;34154;-74
2022/08/24 05:25:27;;;;;;;3.47;1.40;;;14.80;19.10;;;;;;5130592;27;34284;-74
2022/08/24 05:27:53;;;;;;;3.00;1.27;;;14.70;19.00;;;;;;5147640;27;35636;-74
2022/08/24 05:30:19;;;;;;;1.30;1.20;;;14.80;19.00;;;;;;5130623;27;34125;-74
2022/08/24 05:32:45;;;;;;;2.63;1.40;;;14.80;19.00;;;;;;5125866;27;34328;-74
2022/08/24 05:35:12;;;;;;;1.00;0.90;;;14.80;18.90;;;;;;5118922;27;35585;-74
2022/08/24 05:37:38;;;;;;;3.22;1.63;;;14.80;18.90;;;;;;5139842;27;34338;-74
2022/08/24 05:40:08;;;;;;;1.77;1.40;;;14.90;19.40;;;;;;5163157;27;34204;-74
2022/08/24 05:42:35;;;;;;;2.25;1.15;;;14.90;19.60;;;;;;5131542;27;34331;-74
2022/08/24 05:45:01;;;;;;;2.28;1.67;;;15.00;19.30;;;;;;5146689;27;34618;-74
2022/08/24 05:47:27;;;;;;;2.83;1.95;;;15.00;19.20;;;;;;5151831;27;34544;-74
2022/08/24 05:49:53;;;;;;;1.30;1.20;;;15.00;19.50;;;;;;5126055;27;34530;-74
2022/08/24 05:52:21;;;;;;;2.33;1.67;;;15.10;19.70;;;;;;5132743;27;34397;-76
2022/08/24 05:54:57;;;;;;;1.75;1.42;;;15.10;19.80;;;;;;5146405;27;34398;-74
2022/08/24 05:57:24;;;;;;;1.50;1.40;;;15.20;20.90;;;;;;5129653;27;36882;-74
2022/08/24 05:59:51;;;;;;;2.25;1.70;;;15.20;19.70;;;;;;5146630;27;34294;-75
2022/08/24 06:02:18;;;;;;;1.67;1.58;;;15.30;19.60;;;;;;5147176;27;34114;-74
2022/08/24 06:04:44;;;;;;;2.35;1.80;;;15.40;19.90;;;;;;5131747;27;34174;-75
2022/08/24 06:07:11;;;;;;;1.75;1.40;;;15.50;19.90;;;;;;5150834;27;36319;-74
2022/08/24 06:09:38;;;;;;;4.07;1.60;;;15.60;20.00;;;;;;5154161;27;34219;-74
2022/08/24 06:12:07;;;;;;;3.40;1.70;;;15.80;20.00;;;;;;5137403;27;34200;-75
2022/08/24 06:14:34;;;;;;;2.47;1.67;;;16.00;19.60;;;;;;5149826;27;34042;-74
2022/08/24 06:17:04;;;;;;;3.20;2.03;;;16.50;19.30;;;;;;5158186;27;35857;-75
2022/08/24 06:19:31;;;;;;;2.83;1.50;;;17.30;18.70;;;;;;5125652;27;34102;-75
2022/08/24 06:21:58;;;;;;;1.52;1.30;;;18.00;17.50;;;;;;5144499;27;34066;-74
2022/08/24 06:29:51;;;;;;;2.03;1.30;;;20.40;14.40;;;;;;5164942;27;34310;-75
2022/08/24 06:32:17;;;;;;;2.10;1.52;;;21.20;13.40;;;;;;5137013;27;34346;-75
2022/08/24 06:34:43;;;;;;;2.30;1.70;;;21.90;12.30;;;;;;5148687;27;34089;-75
2022/08/24 06:37:09;;;;;;;1.30;1.20;;;22.70;11.50;;;;;;5129885;27;35409;-75
2022/08/24 06:39:35;;;;;;;3.30;1.52;;;23.30;10.80;;;;;;5165599;27;34413;-75
2022/08/24 06:42:01;;;;;;;1.42;1.30;;;23.80;10.20;;;;;;5150770;27;34193;-76
2022/08/24 06:44:27;;;;;;;2.85;1.25;;;24.30;9.60;;;;;;5149718;27;34334;-75
2022/08/24 06:46:53;;;;;;;1.95;1.33;;;24.70;9.00;;;;;;5149922;27;35656;-76
2022/08/24 06:49:18;;;;;;;1.45;1.35;;;25.00;8.50;;;;;;5149487;27;34058;-76
2022/08/24 06:51:45;;;;;;;2.50;1.30;;;25.40;7.80;;;;;;5147064;27;34249;-75
2022/08/24 06:54:10;;;;;;;1.33;1.13;;;25.70;7.40;;;;;;5148551;27;34062;-75
2022/08/24 06:56:38;;;;;;;1.00;1.00;;;25.80;7.00;;;;;;5149452;27;34293;-75
2022/08/24 06:59:04;;;;;;;1.05;1.00;;;25.80;6.70;;;;;;5140998;27;34212;-76
2022/08/24 07:01:31;;;;;;;1.45;0.90;;;26.00;7.10;;;;;;5164265;27;34110;-76
2022/08/24 07:03:57;;;;;;;3.55;1.20;;;26.20;7.00;;;;;;5147308;27;34304;-76
2022/08/24 07:06:24;;;;;;;1.20;1.10;;;26.30;7.00;;;;;;5132714;27;34307;-76
2022/08/24 07:08:52;;;;;;;1.92;1.30;;;26.40;6.70;;;;;;5148684;27;34141;-76
2022/08/24 07:11:19;;;;;;;2.28;1.05;;;26.50;6.70;;;;;;5138853;27;34395;-75
2022/08/24 07:13:47;;;;;;;2.55;1.30;;;26.40;6.50;;;;;;5129154;27;34205;-75
2022/08/24 07:16:14;;;;;;;3.30;1.17;;;26.30;6.80;;;;;;5131706;27;36239;-75
2022/08/24 07:18:42;;;;;;;7.85;1.30;;;26.20;7.00;;;;;;5126350;27;34344;-75
2022/08/24 07:21:08;;;;;;;3.63;1.40;;;26.00;7.20;;;;;;5132552;27;34380;-75
2022/08/24 07:23:36;;;;;;;3.30;1.25;;;25.90;7.40;;;;;;5138763;27;34143;-76
2022/08/24 07:26:14;;;;;;;1.38;1.27;;;25.70;7.60;;;;;;5142031;27;35919;-76
2022/08/24 07:28:40;;;;;;;1.50;1.30;;;25.70;6.10;;;;;;5137029;27;34228;-76
2022/08/24 07:31:08;;;;;;;2.63;1.17;;;25.60;7.80;;;;;;5130764;27;35327;-76
2022/08/24 07:33:35;;;;;;;2.80;1.20;;;25.50;8.00;;;;;;5137499;27;34298;-75
2022/08/24 07:36:00;;;;;;;1.40;1.30;;;25.30;8.10;;;;;;5121087;27;35692;-75
2022/08/24 07:38:27;;;;;;;1.25;1.15;;;25.30;8.40;;;;;;5158746;27;34289;-76
2022/08/24 07:40:53;;;;;;;2.92;1.30;;;25.20;8.50;;;;;;5147932;27;34433;-75
2022/08/24 07:43:19;;;;;;;2.53;1.30;;;25.20;8.70;;;;;;5148035;27;34069;-75
2022/08/24 07:45:47;;;;;;;6.93;1.75;;;25.30;8.80;;;;;;5138678;27;35515;-75
2022/08/24 07:48:13;;;;;;;2.85;1.38;;;25.30;8.70;;;;;;5144381;27;34116;-75
2022/08/24 07:50:39;;;;;;;1.35;1.25;;;25.40;8.50;;;;;;5160244;27;34336;-75
2022/08/24 07:53:05;;;;;;;1.60;1.27;;;25.40;8.40;;;;;;5159749;27;34325;-75
2022/08/24 07:55:31;;;;;;;2.28;1.35;;;25.40;8.40;;;;;;5142950;27;35715;-75
2022/08/24 07:57:58;;;;;;;5.10;1.63;;;25.30;8.30;;;;;;5157400;27;35144;-75
2022/08/24 08:00:24;;;;;;;4.72;1.40;;;25.20;8.20;;;;;;5131633;27;34094;-76
2022/08/24 08:02:50;;;;;;;2.88;1.35;;;25.20;8.30;;;;;;5121421;27;34438;-75
2022/08/24 08:05:21;;;;;;;1.48;1.38;;;25.30;8.10;;;;;;5135586;27;36098;-75
2022/08/24 08:07:48;;;;;;;3.20;1.40;;;25.50;7.70;;;;;;5155481;27;34283;-75
2022/08/24 08:10:14;;;;;;;4.45;1.58;;;25.90;7.50;;;;;;5139598;27;34336;-75
2022/08/24 08:12:40;;;;;;;3.95;1.35;;;26.00;7.40;;;;;;5161206;27;35913;-75
2022/08/24 08:15:08;;;;;;;5.68;1.50;;;26.20;7.20;;;;;;5133978;27;35600;-75
2022/08/24 08:17:36;;;;;;;3.13;1.60;;;26.20;7.20;;;;;;5136022;27;34153;-75
2022/08/24 08:20:05;;;;;;;4.65;1.55;;;26.30;7.10;;;;;;5119210;27;34723;-75
2022/08/24 08:25:14;;;;;;;1.50;1.33;;;26.50;7.10;;;;;;5153865;27;35111;-76
2022/08/24 08:27:40;;;;;;;2.38;1.50;;;26.50;6.80;;;;;;5157030;27;34265;-75
2022/08/24 08:30:07;;;;;;;2.55;1.30;;;26.40;6.70;;;;;;5138433;27;34228;-76
2022/08/24 08:32:33;;;;;;;5.65;1.80;;;26.50;6.90;;;;;;5143283;27;34518;-75
2022/08/24 08:35:00;;;;;;;1.42;1.20;;;26.50;7.00;;;;;;5161327;27;34485;-76
2022/08/24 08:37:26;;;;;;;5.20;1.67;;;26.50;7.00;;;;;;5139924;27;34161;-76
2022/08/24 08:39:53;;;;;;;2.42;1.42;;;26.50;7.00;;;;;;5139740;27;35352;-76
2022/08/24 08:42:50;;;;;;;2.60;1.70;;;26.50;6.90;;;;;;5139157;27;34333;-76
2022/08/24 08:45:45;;;;;;;4.72;1.55;;;26.70;7.00;;;;;;5123389;27;36219;-76
2022/08/24 08:48:42;;;;;;;2.33;1.67;;;26.70;6.00;;;;;;5100081;27;34484;-75
2022/08/24 08:51:35;;;;;;;3.50;1.60;;;26.90;4.70;;;;;;5094657;27;34654;-75
2022/08/24 08:54:13;;;;;;;7.13;1.52;;;27.00;5.00;;;;;;5102333;27;34453;-75
2022/08/24 08:57:10;;;;;;;3.30;1.42;;;27.20;5.50;;;;;;5095610;27;36272;-75
2022/08/24 08:59:59;;;;;;;3.15;1.30;;;27.40;5.20;;;;;;5102148;27;34952;-75
2022/08/24 09:02:53;;;;;;;1.50;1.40;;;27.60;4.20;;;;;;5113701;27;34281;-77
2022/08/24 09:05:52;;;;;;;6.25;1.42;;;28.00;5.00;;;;;;5083196;27;34654;-75
2022/08/24 09:08:49;;;;;;;3.00;1.08;;;28.50;4.40;;;;;;5110946;27;34368;-75
2022/08/24 09:11:51;;;;;;;1.60;1.50;;;29.00;2.80;;;;;;5116642;27;34478;-76
2022/08/24 09:14:42;;;;;;;3.75;1.10;;;29.50;1.10;;;;;;5089095;27;35071;-75
2022/08/24 09:17:39;;;;;;;5.85;1.52;;;29.60;2.00;;;;;;5110977;27;34187;-75
2022/08/24 09:20:26;;;;;;;2.08;1.30;;;29.90;1.00;;;;;;5113626;27;35734;-76
2022/08/24 09:23:14;;;;;;;2.38;1.48;;;29.80;2.00;;;;;;5123601;27;35152;-75
2022/08/24 09:26:06;;;;;;;2.33;1.20;;;29.90;1.00;;;;;;5124010;27;34485;-76
2022/08/24 09:28:41;;;;;;;3.55;1.35;;;30.00;1.00;;;;;;5150847;27;34439;-76
2022/08/24 09:31:30;;;;;;;5.57;1.52;;;30.20;1.00;;;;;;5145343;27;36164;-75
2022/08/24 09:34:18;;;;;;;3.90;1.38;;;30.40;1.00;;;;;;5135510;27;34284;-75
2022/08/24 09:37:03;;;;;;;1.48;1.23;;;30.70;1.00;;;;;;5095927;27;34437;-76
2022/08/24 09:39:51;;;;;;;3.33;1.30;;;31.00;1.00;;;;;;5142659;27;34254;-75
2022/08/24 09:42:52;;;;;;;1.90;1.45;;;31.30;1.00;;;;;;5139089;27;34210;-76
2022/08/24 09:45:39;;;;;;;5.65;1.25;;;31.60;1.00;;;;;;5143903;27;34524;-75
2022/08/24 09:48:35;;;;;;;4.72;1.60;;;32.00;1.00;;;;;;5142082;27;34443;-76
2022/08/24 09:51:29;;;;;;;4.10;1.30;;;32.40;1.00;;;;;;5140247;27;34283;-77
2022/08/24 09:54:24;;;;;;;3.05;1.20;;;32.70;1.00;;;;;;5146725;27;35508;-76
2022/08/24 09:57:20;;;;;;;2.50;1.35;;;33.00;1.00;;;;;;5156683;27;34498;-75
2022/08/24 10:00:04;;;;;;;3.40;1.30;;;33.30;1.00;;;;;;5139073;27;34197;-75
2022/08/24 10:02:51;;;;;;;1.63;1.30;;;33.60;1.00;;;;;;5126991;27;35011;-75
2022/08/24 10:05:38;;;;;;;4.13;1.30;;;33.80;1.00;;;;;;5139217;27;35200;-76
2022/08/24 10:08:21;;;;;;;4.32;1.52;;;34.00;1.00;;;;;;5160608;27;34313;-76
2022/08/24 10:11:02;;;;;;;2.58;1.50;;;34.20;1.00;;;;;;5149940;27;34444;-75
2022/08/24 10:14:01;;;;;;;1.83;1.20;;;34.20;1.00;;;;;;5144996;27;34541;-76
2022/08/24 10:16:53;;;;;;;2.63;1.13;;;34.30;1.00;;;;;;5138932;27;35719;-76
2022/08/24 10:19:46;;;;;;;2.88;1.30;;;34.20;1.00;;;;;;5147071;27;34292;-76
2022/08/24 10:22:48;;;;;;;2.05;1.20;;;34.50;1.00;;;;;;5140515;27;34216;-75
2022/08/24 10:25:30;;;;;;;2.17;1.50;;;34.70;1.00;;;;;;5141805;27;34176;-76
2022/08/24 10:28:10;;;;;;;2.17;1.63;;;34.80;1.00;;;;;;5126466;27;35813;-75
2022/08/24 10:31:00;;;;;;;1.67;1.33;;;34.90;1.00;;;;;;5141596;27;34369;-76
2022/08/24 10:33:34;;;;;;;1.88;1.15;;;34.90;1.00;;;;;;5119013;27;34223;-76
2022/08/24 10:36:22;;;;;;;1.95;1.50;;;34.90;1.00;;;;;;5163862;27;34366;-76
2022/08/24 10:43:32;;;;;;;2.75;1.02;;;34.90;1.00;;;;;;5146438;27;34347;-78
2022/08/24 10:45:17;;;;;;;2.10;1.20;;;35.20;1.00;;;;;;5149811;27;34610;-76
2022/08/24 10:48:13;;;;;;;1.20;1.10;;;35.40;1.00;;;;;;5131305;27;34758;-75
2022/08/24 10:50:57;;;;;;;1.70;1.50;;;35.60;1.00;;;;;;5142554;27;34138;-75
2022/08/24 10:53:27;;;;;;;2.25;1.20;;;35.80;1.00;;;;;;5157828;27;34453;-76
2022/08/24 10:56:06;;;;;;;3.08;1.50;;;35.90;1.00;;;;;;5115157;27;34427;-76
2022/08/24 10:58:56;;;;;;;1.58;1.30;;;35.70;1.00;;;;;;5161987;27;34102;-76
2022/08/24 11:01:28;;;;;;;2.15;1.65;;;35.50;1.00;;;;;;5122703;27;35943;-76
2022/08/24 11:04:03;;;;;;;2.50;1.50;;;35.70;1.00;;;;;;5129048;27;34706;-75
2022/08/24 11:06:33;;;;;;;3.95;1.65;;;35.90;1.00;;;;;;5112410;27;34388;-76
2022/08/24 11:09:04;;;;;;;1.98;1.42;;;36.00;1.00;;;;;;5112724;27;34285;-76
2022/08/24 11:11:35;;;;;;;1.65;1.40;;;36.10;1.00;;;;;;5142238;27;35853;-76
2022/08/24 11:14:08;;;;;;;1.67;1.58;;;36.10;1.00;;;;;;5143121;27;34345;-76
2022/08/24 11:16:39;;;;;;;1.75;1.40;;;36.10;1.00;;;;;;5143425;27;34281;-77
2022/08/24 11:19:10;;;;;;;2.58;1.40;;;35.90;1.00;;;;;;5150229;27;34549;-77
2022/08/24 11:21:48;;;;;;;3.10;1.35;;;35.90;1.00;;;;;;5159220;27;34069;-77
2022/08/24 11:24:40;;;;;;;1.98;1.52;;;35.80;1.00;;;;;;5157630;27;34119;-76
2022/08/24 11:27:29;;;;;;;2.08;1.40;;;35.90;1.00;;;;;;5124488;27;34213;-76
2022/08/24 11:29:59;;;;;;;2.35;1.40;;;36.10;1.00;;;;;;5123729;27;34327;-76
2022/08/24 11:32:42;;;;;;;1.83;1.58;;;36.30;1.00;;;;;;5131376;27;36454;-77
2022/08/24 11:35:27;;;;;;;1.92;1.50;;;36.50;1.00;;;;;;5132916;27;34493;-76
2022/08/24 11:38:02;;;;;;;3.22;1.45;;;36.60;1.00;;;;;;5157773;27;34437;-77
2022/08/24 11:40:33;;;;;;;1.60;1.50;;;36.60;1.00;;;;;;5127749;27;34157;-73
2022/08/24 11:43:29;;;;;;;3.05;1.33;;;36.60;1.00;;;;;;5130102;27;35517;-76
2022/08/24 11:46:18;;;;;;;4.70;1.40;;;36.40;1.00;;;;;;5147270;27;34431;-75
2022/08/24 11:49:09;;;;;;;2.42;1.60;;;36.30;1.00;;;;;;5155033;27;34160;-76
2022/08/24 11:51:54;;;;;;;1.67;1.33;;;36.30;1.00;;;;;;5146231;27;35126;-74
2022/08/24 11:54:51;;;;;;;1.52;1.33;;;36.30;1.00;;;;;;5150523;27;35741;-75
2022/08/24 11:57:40;;;;;;;3.55;1.60;;;36.60;1.00;;;;;;5138020;27;33855;-74
2022/08/24 12:00:14;;;;;;;1.92;1.67;;;36.60;1.00;;;;;;5144098;27;34329;-74
2022/08/24 12:02:59;;;;;;;3.13;1.50;;;36.70;1.00;;;;;;5124392;27;34756;-75
2022/08/24 12:05:56;;;;;;;2.95;1.33;;;36.60;1.00;;;;;;5139515;27;36014;-75
2022/08/24 12:08:41;;;;;;;1.70;1.50;;;36.60;1.00;;;;;;5137817;27;34179;-74
2022/08/24 12:11:35;;;;;;;1.98;1.55;;;36.60;1.00;;;;;;5148348;27;34114;-75
2022/08/24 12:14:15;;;;;;;2.30;1.40;;;36.90;1.00;;;;;;5146144;27;34064;-75
2022/08/24 12:16:57;;;;;;;2.25;1.38;;;37.00;1.00;;;;;;5147502;27;35530;-75
2022/08/24 12:19:29;;;;;;;4.22;1.50;;;37.10;1.00;;;;;;5148604;27;34144;-75
2022/08/24 12:22:01;;;;;;;1.55;1.45;;;37.00;1.00;;;;;;5148229;27;34067;-76
2022/08/24 12:24:48;;;;;;;2.50;1.70;;;37.10;1.00;;;;;;5156998;27;34096;-75
2022/08/24 12:27:19;;;;;;;4.75;1.90;;;37.20;1.00;;;;;;5152504;27;35724;-74
2022/08/24 12:30:02;;;;;;;2.05;1.17;;;37.30;1.00;;;;;;5139460;27;34192;-76
2022/08/24 12:32:36;;;;;;;1.55;1.20;;;37.50;1.00;;;;;;5139690;27;34161;-75
2022/08/24 12:35:13;;;;;;;2.35;1.88;;;37.60;1.00;;;;;;5123428;27;34196;-75
2022/08/24 12:37:58;;;;;;;1.55;1.45;;;37.60;1.00;;;;;;5143560;27;34314;-75
2022/08/24 12:40:40;;;;;;;2.05;1.65;;;37.70;1.00;;;;;;5141124;27;34358;-75
2022/08/24 12:43:26;;;;;;;1.63;1.50;;;37.90;1.00;;;;;;5148126;27;34889;-75
2022/08/24 12:45:59;;;;;;;2.67;1.33;;;37.70;1.00;;;;;;5166910;27;34037;-75
2022/08/24 12:48:44;;;;;;;2.00;1.40;;;37.60;1.00;;;;;;5142953;27;35899;-74
2022/08/24 12:51:45;;;;;;;2.47;1.55;;;37.60;1.00;;;;;;5161845;27;34012;-75
2022/08/24 12:54:27;;;;;;;2.30;1.60;;;37.70;1.00;;;;;;5150026;27;34176;-75
2022/08/24 12:57:31;;;;;;;1.40;1.30;;;37.90;1.00;;;;;;5146435;27;34160;-75
2022/08/24 13:00:06;;;;;;;2.75;1.42;;;37.70;1.00;;;;;;5162466;27;34349;-75
2022/08/24 13:02:39;;;;;;;1.73;1.40;;;37.40;1.00;;;;;;5142277;27;34185;-74
2022/08/24 13:05:13;;;;;;;3.03;1.25;;;37.10;1.00;;;;;;5162906;27;34457;-74
2022/08/24 13:07:43;;;;;;;1.65;1.25;;;36.70;1.00;;;;;;5131766;27;34154;-76
2022/08/24 13:10:28;;;;;;;1.70;1.35;;;36.50;1.00;;;;;;5133219;27;34530;-75
2022/08/24 13:13:09;;;;;;;2.17;1.40;;;36.30;1.00;;;;;;5138570;27;34595;-76
2022/08/24 13:15:55;;;;;;;2.00;1.50;;;36.20;1.00;;;;;;5137783;27;34242;-74
2022/08/24 13:18:44;;;;;;;5.30;1.63;;;36.20;1.00;;;;;;5146719;27;34545;-75
2022/08/24 13:21:32;;;;;;;3.78;1.40;;;36.20;1.00;;;;;;5163497;27;34406;-74
2022/08/24 13:24:29;;;;;;;2.17;1.55;;;36.30;1.00;;;;;;5131104;27;34431;-75
2022/08/24 13:26:57;;;;;;;1.58;1.48;;;36.50;1.00;;;;;;5145787;27;34355;-76
2022/08/24 13:29:32;;;;;;;1.52;1.42;;;36.40;1.00;;;;;;5117022;27;34330;-75
2022/08/24 13:31:59;;;;;;;4.88;1.42;;;36.50;1.00;;;;;;5126994;27;35815;-74
2022/08/24 13:34:43;;;;;;;1.83;1.60;;;36.50;1.00;;;;;;5144435;27;34317;-75
2022/08/24 13:37:21;;;;;;;2.85;1.20;;;36.60;1.00;;;;;;5142484;27;34790;-74